Time;durP1;ratioP1;P1;durP2;ratioP2;P2;SDS_P1;SDS_P2;PMS_P1;PMS_P2;Temp;Humidity;BMP_temperature;BMP_pressure;BME280_temperature;BME280_humidity;BME280_pressure;Samples;Min_cycle;Max_cycle;Signal;HPM_P1;HPM_P2
2023/10/29 00:01:28;;;;;;;20.70;11.57;;;;;;;;;;5092714;28;20030;-73
2023/10/29 00:03:54;;;;;;;19.48;10.70;;;;;;;;;;5093312;28;20046;-75
2023/10/29 00:06:20;;;;;;;20.10;11.52;;;;;;;;;;5093020;28;20078;-72
2023/10/29 00:08:46;;;;;;;17.85;11.10;;;;;;;;;;5092867;28;20503;-72
2023/10/29 00:11:12;;;;;;;21.67;10.65;;;;;;;;;;5092776;28;20073;-74
2023/10/29 00:13:38;;;;;;;21.90;11.20;;;;;;;;;;5094590;28;20028;-73
2023/10/29 00:16:04;;;;;;;18.05;11.63;;;;;;;;;;5091859;28;20046;-73
2023/10/29 00:18:30;;;;;;;23.67;11.80;;;;;;;;;;5092686;28;20031;-73
2023/10/29 00:20:56;;;;;;;18.60;11.32;;;;;;;;;;5092369;28;20063;-72
2023/10/29 00:23:22;;;;;;;32.53;11.73;;;;;;;;;;5092383;28;20061;-72
2023/10/29 00:25:48;;;;;;;21.48;11.60;;;;;;;;;;5092499;28;20032;-73
2023/10/29 00:28:14;;;;;;;19.35;11.35;;;;;;;;;;5092553;28;20081;-73
2023/10/29 00:30:40;;;;;;;21.95;11.80;;;;;;;;;;5092554;28;20544;-74
2023/10/29 00:33:06;;;;;;;17.67;11.30;;;;;;;;;;5092207;28;20296;-74
2023/10/29 00:35:32;;;;;;;21.00;10.75;;;;;;;;;;5094031;28;20036;-73
2023/10/29 00:37:58;;;;;;;27.48;11.25;;;;;;;;;;5092484;28;20443;-72
2023/10/29 00:40:25;;;;;;;20.15;10.52;;;;;;;;;;5091609;28;20050;-73
2023/10/29 00:42:51;;;;;;;23.50;11.32;;;;;;;;;;5092121;28;20108;-74
2023/10/29 00:45:17;;;;;;;20.73;10.90;;;;;;;;;;5093591;28;20067;-72
2023/10/29 00:47:43;;;;;;;18.95;9.90;;;;;;;;;;5093245;28;20106;-73
2023/10/29 00:50:09;;;;;;;20.75;11.02;;;;;;;;;;5092442;28;20035;-72
2023/10/29 00:52:36;;;;;;;22.55;10.48;;;;;;;;;;5091860;28;20070;-73
2023/10/29 00:55:02;;;;;;;17.40;10.18;;;;;;;;;;5092225;28;20052;-73
2023/10/29 00:57:28;;;;;;;20.58;10.32;;;;;;;;;;5092285;28;20031;-73
2023/10/29 00:59:55;;;;;;;21.58;10.57;;;;;;;;;;5091828;28;20051;-74
2023/10/29 01:02:21;;;;;;;14.45;9.57;;;;;;;;;;5091676;28;20028;-73
2023/10/29 01:04:47;;;;;;;19.63;9.48;;;;;;;;;;5090740;28;20493;-73
2023/10/29 01:07:13;;;;;;;24.40;9.70;;;;;;;;;;5091896;28;20055;-73
2023/10/29 01:09:41;;;;;;;25.10;9.98;;;;;;;;;;5091963;28;20074;-73
2023/10/29 01:12:15;;;;;;;16.50;8.77;;;;;;;;;;5091560;28;20074;-72
2023/10/29 01:14:41;;;;;;;24.42;9.80;;;;;;;;;;5092045;28;20028;-72
2023/10/29 01:17:07;;;;;;;17.77;8.90;;;;;;;;;;5091827;28;20470;-73
2023/10/29 01:19:33;;;;;;;19.33;9.45;;;;;;;;;;5094722;28;20024;-71
2023/10/29 01:21:59;;;;;;;19.95;8.90;;;;;;;;;;5094758;28;20035;-73
2023/10/29 01:24:26;;;;;;;24.45;9.20;;;;;;;;;;5092707;28;20073;-73
2023/10/29 01:26:53;;;;;;;17.65;9.00;;;;;;;;;;5092488;28;20020;-73
2023/10/29 01:29:19;;;;;;;18.92;8.75;;;;;;;;;;5092011;28;20016;-74
2023/10/29 01:31:51;;;;;;;25.25;8.77;;;;;;;;;;5091268;28;20396;-72
2023/10/29 01:34:17;;;;;;;22.77;8.48;;;;;;;;;;5091696;28;20494;-72
2023/10/29 01:36:43;;;;;;;15.30;8.40;;;;;;;;;;5091759;28;20047;-72
2023/10/29 01:39:09;;;;;;;15.52;8.23;;;;;;;;;;5091525;28;20476;-73
2023/10/29 01:41:35;;;;;;;26.90;8.88;;;;;;;;;;5091189;28;20103;-73
2023/10/29 01:44:01;;;;;;;19.42;8.70;;;;;;;;;;5090350;28;20443;-73
2023/10/29 01:46:27;;;;;;;16.60;8.48;;;;;;;;;;5091962;28;20031;-73
2023/10/29 01:48:54;;;;;;;19.52;9.05;;;;;;;;;;5091320;28;20066;-74
2023/10/29 01:51:20;;;;;;;16.77;7.63;;;;;;;;;;5093839;28;20123;-73
2023/10/29 01:53:46;;;;;;;19.63;8.18;;;;;;;;;;5095276;28;20368;-74
2023/10/29 01:56:12;;;;;;;18.83;7.65;;;;;;;;;;5095292;28;20103;-73
2023/10/29 01:58:38;;;;;;;19.38;8.23;;;;;;;;;;5095511;28;20021;-72
2023/10/29 02:01:11;;;;;;;22.38;8.80;;;;;;;;;;5094962;28;20111;-73
2023/10/29 02:03:37;;;;;;;17.35;8.20;;;;;;;;;;5095119;28;20020;-74
2023/10/29 02:06:04;;;;;;;20.00;8.23;;;;;;;;;;5095361;28;20368;-72
2023/10/29 02:08:29;;;;;;;16.25;8.30;;;;;;;;;;5095168;28;20099;-74
2023/10/29 02:10:56;;;;;;;21.15;8.38;;;;;;;;;;5095333;28;20428;-73
2023/10/29 02:13:22;;;;;;;19.73;7.38;;;;;;;;;;5094940;28;20020;-73
2023/10/29 02:15:48;;;;;;;19.85;7.22;;;;;;;;;;5095920;28;20025;-73
2023/10/29 02:18:14;;;;;;;16.08;7.68;;;;;;;;;;5094187;28;20024;-73
2023/10/29 02:20:39;;;;;;;21.58;8.65;;;;;;;;;;5094812;28;20130;-72
2023/10/29 02:23:05;;;;;;;19.70;7.95;;;;;;;;;;5094517;28;20382;-73
2023/10/29 02:25:31;;;;;;;14.88;7.50;;;;;;;;;;5094997;28;20091;-72
2023/10/29 02:27:57;;;;;;;16.35;7.60;;;;;;;;;;5094739;28;20022;-73
2023/10/29 02:30:23;;;;;;;18.23;7.30;;;;;;;;;;5094621;28;20032;-72
2023/10/29 02:32:49;;;;;;;20.10;7.10;;;;;;;;;;5094519;28;20475;-74
2023/10/29 02:35:15;;;;;;;15.93;8.02;;;;;;;;;;5094727;28;20111;-74
2023/10/29 02:37:41;;;;;;;14.90;7.45;;;;;;;;;;5096790;28;20497;-73
2023/10/29 02:40:09;;;;;;;15.60;7.70;;;;;;;;;;5096403;28;20047;-73
2023/10/29 02:42:35;;;;;;;14.98;7.53;;;;;;;;;;5094613;28;20020;-72
2023/10/29 02:45:01;;;;;;;17.10;7.40;;;;;;;;;;5094773;28;20085;-72
2023/10/29 02:47:27;;;;;;;15.35;7.13;;;;;;;;;;5095748;28;20016;-72
2023/10/29 02:49:53;;;;;;;16.45;7.80;;;;;;;;;;5094652;28;20116;-71
2023/10/29 02:52:19;;;;;;;16.73;6.97;;;;;;;;;;5093908;28;20038;-73
2023/10/29 02:54:45;;;;;;;17.80;7.28;;;;;;;;;;5094702;28;20723;-74
2023/10/29 02:57:13;;;;;;;17.42;7.68;;;;;;;;;;5094113;28;20105;-73
2023/10/29 02:59:39;;;;;;;17.38;6.75;;;;;;;;;;5094266;28;20020;-74
2023/10/29 03:02:05;;;;;;;22.35;7.22;;;;;;;;;;5093216;28;20488;-74
2023/10/29 03:04:33;;;;;;;16.25;7.40;;;;;;;;;;5095870;28;20047;-73
2023/10/29 03:06:59;;;;;;;15.13;6.55;;;;;;;;;;5097665;28;20035;-72
2023/10/29 03:09:25;;;;;;;21.75;7.72;;;;;;;;;;5102971;28;20055;-71
2023/10/29 03:11:51;;;;;;;17.88;6.90;;;;;;;;;;5093806;28;20066;-73
2023/10/29 03:14:17;;;;;;;22.67;7.43;;;;;;;;;;5093992;28;20454;-73
2023/10/29 03:16:43;;;;;;;14.10;6.82;;;;;;;;;;5093970;28;20024;-73
2023/10/29 03:19:09;;;;;;;18.90;7.13;;;;;;;;;;5093667;28;20108;-73
2023/10/29 03:21:36;;;;;;;14.77;6.82;;;;;;;;;;5093549;28;20103;-74
2023/10/29 03:24:02;;;;;;;11.30;6.30;;;;;;;;;;5094133;28;20016;-74
2023/10/29 03:26:28;;;;;;;12.82;6.55;;;;;;;;;;5094698;28;20020;-73
2023/10/29 03:28:54;;;;;;;12.90;6.75;;;;;;;;;;5103426;28;20040;-74
2023/10/29 03:31:20;;;;;;;12.68;6.18;;;;;;;;;;5097304;28;20399;-72
2023/10/29 03:33:47;;;;;;;11.32;6.15;;;;;;;;;;5109231;28;20031;-73
2023/10/29 03:36:13;;;;;;;14.45;6.15;;;;;;;;;;5098584;28;20127;-74
2023/10/29 03:38:39;;;;;;;9.88;5.60;;;;;;;;;;5094126;28;20024;-74
2023/10/29 03:41:05;;;;;;;14.38;5.55;;;;;;;;;;5093270;28;20024;-73
2023/10/29 03:43:31;;;;;;;11.90;5.15;;;;;;;;;;5093021;28;20547;-74
2023/10/29 03:45:57;;;;;;;9.00;4.90;;;;;;;;;;5093471;28;20024;-73
2023/10/29 03:48:23;;;;;;;12.27;4.95;;;;;;;;;;5093247;28;20056;-72
2023/10/29 03:50:49;;;;;;;13.77;4.80;;;;;;;;;;5100701;28;20031;-73
2023/10/29 03:53:15;;;;;;;7.38;4.22;;;;;;;;;;5099732;28;20028;-73
2023/10/29 03:55:41;;;;;;;9.27;4.43;;;;;;;;;;5098608;28;20035;-73
2023/10/29 03:58:07;;;;;;;8.10;4.47;;;;;;;;;;5097288;28;20024;-74
2023/10/29 04:00:33;;;;;;;8.27;4.30;;;;;;;;;;5092845;28;20032;-74
2023/10/29 04:02:59;;;;;;;9.48;4.13;;;;;;;;;;5093818;28;20032;-73
2023/10/29 04:05:25;;;;;;;11.45;4.70;;;;;;;;;;5094458;28;20050;-73
2023/10/29 04:07:51;;;;;;;10.02;4.93;;;;;;;;;;5095544;28;20034;-75
2023/10/29 04:10:17;;;;;;;9.25;4.88;;;;;;;;;;5094645;28;20028;-72
2023/10/29 04:12:43;;;;;;;9.18;4.85;;;;;;;;;;5091152;28;20055;-73
2023/10/29 04:15:09;;;;;;;10.38;4.88;;;;;;;;;;5094810;28;20028;-73
2023/10/29 04:17:35;;;;;;;13.80;4.47;;;;;;;;;;5104262;28;20028;-73
2023/10/29 04:20:01;;;;;;;9.63;4.75;;;;;;;;;;5097497;28;20028;-73
2023/10/29 04:22:27;;;;;;;7.78;4.20;;;;;;;;;;5092171;28;20031;-71
2023/10/29 04:24:53;;;;;;;9.23;4.40;;;;;;;;;;5092484;28;20471;-72
2023/10/29 04:27:19;;;;;;;7.70;4.20;;;;;;;;;;5092678;28;20017;-74
2023/10/29 04:29:46;;;;;;;9.05;4.43;;;;;;;;;;5092494;28;20431;-73
2023/10/29 04:32:12;;;;;;;10.68;5.10;;;;;;;;;;5092432;28;20039;-73
2023/10/29 04:34:38;;;;;;;10.95;5.30;;;;;;;;;;5093878;28;20024;-73
2023/10/29 04:37:04;;;;;;;10.05;4.80;;;;;;;;;;5092217;28;20030;-72
2023/10/29 04:39:30;;;;;;;7.15;4.55;;;;;;;;;;5092844;28;20032;-73
2023/10/29 04:41:56;;;;;;;14.73;5.25;;;;;;;;;;5091897;28;20028;-72
2023/10/29 04:44:22;;;;;;;8.25;4.95;;;;;;;;;;5092177;28;20020;-72
2023/10/29 04:46:48;;;;;;;16.20;4.90;;;;;;;;;;5092127;28;20076;-73
2023/10/29 04:49:14;;;;;;;14.32;5.25;;;;;;;;;;5091938;28;20027;-73
2023/10/29 04:51:40;;;;;;;10.13;4.57;;;;;;;;;;5092461;28;20545;-73
2023/10/29 04:54:07;;;;;;;8.48;4.28;;;;;;;;;;5091688;28;20410;-74
2023/10/29 04:56:33;;;;;;;8.85;4.40;;;;;;;;;;5092001;28;20023;-73
2023/10/29 04:58:59;;;;;;;11.90;4.60;;;;;;;;;;5092053;28;20024;-73
2023/10/29 05:01:25;;;;;;;11.13;4.47;;;;;;;;;;5091263;28;20052;-73
2023/10/29 05:03:51;;;;;;;8.27;4.65;;;;;;;;;;5091896;28;20024;-74
2023/10/29 05:06:18;;;;;;;10.50;5.18;;;;;;;;;;5091575;28;20031;-72
2023/10/29 05:08:44;;;;;;;7.80;4.18;;;;;;;;;;5091551;28;20020;-73
2023/10/29 05:11:10;;;;;;;7.45;4.50;;;;;;;;;;5091693;28;20502;-73
2023/10/29 05:13:36;;;;;;;10.70;4.53;;;;;;;;;;5091612;28;20032;-72
2023/10/29 05:16:03;;;;;;;11.23;4.47;;;;;;;;;;5091714;28;20111;-73
2023/10/29 05:18:29;;;;;;;10.63;4.65;;;;;;;;;;5091566;28;20043;-75
2023/10/29 05:20:55;;;;;;;8.90;4.07;;;;;;;;;;5091243;28;20040;-73
2023/10/29 05:23:21;;;;;;;8.68;3.90;;;;;;;;;;5091453;28;20099;-74
2023/10/29 05:25:47;;;;;;;11.20;4.07;;;;;;;;;;5093441;28;20028;-74
2023/10/29 05:28:13;;;;;;;9.50;4.15;;;;;;;;;;5094414;28;20017;-73
2023/10/29 05:30:39;;;;;;;9.48;3.92;;;;;;;;;;5095571;28;20032;-72
2023/10/29 05:33:06;;;;;;;14.88;4.03;;;;;;;;;;5095183;28;20032;-73
2023/10/29 05:35:32;;;;;;;12.50;4.78;;;;;;;;;;5095501;28;20013;-74
2023/10/29 05:37:58;;;;;;;12.65;4.40;;;;;;;;;;5095384;28;20495;-74
2023/10/29 05:40:24;;;;;;;12.15;4.85;;;;;;;;;;5095342;28;20050;-73
2023/10/29 05:42:50;;;;;;;10.57;4.30;;;;;;;;;;5095276;28;20017;-74
2023/10/29 05:45:16;;;;;;;12.15;4.35;;;;;;;;;;5095446;28;20031;-74
2023/10/29 05:47:43;;;;;;;15.20;4.38;;;;;;;;;;5095602;28;20391;-75
2023/10/29 05:50:09;;;;;;;14.93;4.53;;;;;;;;;;5095586;28;20032;-74
2023/10/29 05:52:35;;;;;;;13.38;4.65;;;;;;;;;;5095066;28;20081;-74
2023/10/29 05:55:01;;;;;;;11.40;4.00;;;;;;;;;;5095120;28;20020;-74
2023/10/29 05:57:27;;;;;;;6.63;4.15;;;;;;;;;;5095008;28;20024;-72
2023/10/29 05:59:53;;;;;;;13.05;4.35;;;;;;;;;;5095075;28;20020;-73
2023/10/29 06:02:19;;;;;;;11.25;3.88;;;;;;;;;;5094439;28;20040;-73
2023/10/29 06:04:46;;;;;;;13.23;3.88;;;;;;;;;;5094961;28;20055;-73
2023/10/29 06:07:12;;;;;;;10.95;3.70;;;;;;;;;;5095030;28;20017;-73
2023/10/29 06:09:41;;;;;;;17.55;4.53;;;;;;;;;;5094979;28;20118;-73
2023/10/29 06:12:08;;;;;;;11.02;4.28;;;;;;;;;;5094569;28;20024;-73
2023/10/29 06:14:34;;;;;;;10.40;3.70;;;;;;;;;;5094877;28;20024;-73
2023/10/29 06:17:00;;;;;;;11.77;4.00;;;;;;;;;;5094789;28;20034;-72
2023/10/29 06:19:27;;;;;;;8.32;4.00;;;;;;;;;;5094888;28;20047;-73
2023/10/29 06:21:53;;;;;;;15.80;3.88;;;;;;;;;;5094499;28;20029;-73
2023/10/29 06:24:19;;;;;;;9.90;3.63;;;;;;;;;;5094778;28;20392;-74
2023/10/29 06:26:45;;;;;;;13.60;3.58;;;;;;;;;;5095016;28;20118;-74
2023/10/29 06:29:11;;;;;;;11.57;3.70;;;;;;;;;;5094651;28;20023;-74
2023/10/29 06:31:37;;;;;;;9.13;3.45;;;;;;;;;;5094487;28;20121;-74
2023/10/29 06:34:03;;;;;;;8.60;3.80;;;;;;;;;;5094776;28;20031;-73
2023/10/29 06:36:29;;;;;;;10.98;3.13;;;;;;;;;;5093683;28;20035;-73
2023/10/29 06:38:55;;;;;;;9.52;3.00;;;;;;;;;;5093833;28;20504;-72
2023/10/29 06:41:22;;;;;;;8.82;3.25;;;;;;;;;;5093860;28;20024;-73
2023/10/29 06:43:48;;;;;;;8.05;2.67;;;;;;;;;;5094059;28;20093;-74
2023/10/29 06:46:17;;;;;;;6.80;2.63;;;;;;;;;;5094065;28;20020;-73
2023/10/29 06:48:43;;;;;;;13.35;3.28;;;;;;;;;;5094341;28;20028;-72
2023/10/29 06:51:10;;;;;;;9.25;2.58;;;;;;;;;;5097842;28;20024;-73
2023/10/29 06:53:36;;;;;;;8.15;2.60;;;;;;;;;;5099639;28;20477;-73
2023/10/29 06:56:02;;;;;;;12.32;2.72;;;;;;;;;;5097169;28;20376;-73
2023/10/29 06:58:28;;;;;;;9.50;2.92;;;;;;;;;;5094734;28;20028;-72
2023/10/29 07:00:54;;;;;;;10.80;2.78;;;;;;;;;;5095760;28;20028;-73
2023/10/29 07:03:21;;;;;;;16.15;2.72;;;;;;;;;;5094109;28;20208;-73
2023/10/29 07:05:46;;;;;;;6.82;2.50;;;;;;;;;;5094277;28;20051;-73
2023/10/29 07:08:12;;;;;;;7.30;2.58;;;;;;;;;;5094117;28;20105;-73
2023/10/29 07:10:39;;;;;;;10.25;2.90;;;;;;;;;;5094097;28;20028;-72
2023/10/29 07:13:05;;;;;;;9.18;2.40;;;;;;;;;;5093679;28;20081;-72
2023/10/29 07:15:31;;;;;;;5.70;2.50;;;;;;;;;;5093932;28;20028;-73
2023/10/29 07:17:57;;;;;;;6.72;2.28;;;;;;;;;;5093598;28;20093;-73
2023/10/29 07:20:23;;;;;;;7.00;2.28;;;;;;;;;;5093816;28;20056;-72
2023/10/29 07:22:49;;;;;;;6.15;2.40;;;;;;;;;;5092364;28;20492;-74
2023/10/29 07:25:15;;;;;;;6.80;2.42;;;;;;;;;;5094711;28;20255;-74
2023/10/29 07:27:41;;;;;;;6.22;2.00;;;;;;;;;;5095636;28;20095;-74
2023/10/29 07:30:09;;;;;;;11.18;2.42;;;;;;;;;;5101122;28;20045;-74
2023/10/29 07:32:35;;;;;;;5.85;2.00;;;;;;;;;;5100211;28;20024;-73
2023/10/29 07:35:01;;;;;;;6.45;2.05;;;;;;;;;;5107153;28;20016;-74
2023/10/29 07:37:28;;;;;;;3.35;1.73;;;;;;;;;;5107941;28;20047;-73
2023/10/29 07:39:54;;;;;;;10.57;3.30;;;;;;;;;;5099369;28;20556;-73
2023/10/29 07:42:21;;;;;;;5.95;2.33;;;;;;;;;;5094276;28;20060;-73
2023/10/29 07:44:46;;;;;;;7.32;2.22;;;;;;;;;;5096083;28;20028;-74
2023/10/29 07:47:12;;;;;;;7.57;2.10;;;;;;;;;;5095383;28;20035;-73
2023/10/29 07:49:38;;;;;;;5.45;1.65;;;;;;;;;;5095274;28;20047;-73
2023/10/29 07:52:06;;;;;;;7.70;1.77;;;;;;;;;;5099324;28;20102;-73
2023/10/29 07:54:33;;;;;;;6.70;1.90;;;;;;;;;;5081830;28;20113;-73
2023/10/29 07:57:00;;;;;;;4.80;1.40;;;;;;;;;;5099486;28;20123;-74
2023/10/29 07:59:26;;;;;;;5.18;1.80;;;;;;;;;;5097659;28;20490;-72
2023/10/29 08:01:52;;;;;;;7.47;1.63;;;;;;;;;;5095677;28;20059;-73
2023/10/29 08:04:18;;;;;;;11.57;2.03;;;;;;;;;;5094075;28;20046;-72
2023/10/29 08:06:44;;;;;;;6.05;1.58;;;;;;;;;;5092778;28;20530;-72
2023/10/29 08:09:11;;;;;;;6.93;1.80;;;;;;;;;;5093386;28;20061;-73
2023/10/29 08:11:37;;;;;;;8.63;1.80;;;;;;;;;;5092383;28;20093;-74
2023/10/29 08:14:03;;;;;;;6.45;1.73;;;;;;;;;;5096363;28;20016;-72
2023/10/29 08:16:29;;;;;;;5.32;1.63;;;;;;;;;;5083844;28;20040;-73
2023/10/29 08:18:55;;;;;;;5.28;1.70;;;;;;;;;;5103684;28;20020;-72
2023/10/29 08:21:22;;;;;;;10.38;2.83;;;;;;;;;;5105135;28;20028;-72
2023/10/29 08:23:48;;;;;;;4.85;1.63;;;;;;;;;;5100535;28;20023;-73
2023/10/29 08:26:14;;;;;;;6.10;1.55;;;;;;;;;;5098143;28;20020;-72
2023/10/29 08:28:40;;;;;;;4.72;1.58;;;;;;;;;;5092819;28;20020;-73
2023/10/29 08:31:08;;;;;;;5.50;1.73;;;;;;;;;;5092288;28;20020;-74
2023/10/29 08:33:34;;;;;;;6.47;1.40;;;;;;;;;;5093051;28;20494;-72
2023/10/29 08:36:00;;;;;;;6.60;1.50;;;;;;;;;;5092083;28;20036;-73
2023/10/29 08:38:26;;;;;;;5.07;1.30;;;;;;;;;;5092109;28;20019;-73
2023/10/29 08:40:52;;;;;;;4.25;1.45;;;;;;;;;;5091734;28;20463;-73
2023/10/29 08:43:18;;;;;;;5.57;1.35;;;;;;;;;;5091859;28;20153;-73
2023/10/29 08:45:44;;;;;;;3.78;1.27;;;;;;;;;;5092065;28;20024;-73
2023/10/29 08:48:10;;;;;;;4.60;1.33;;;;;;;;;;5091959;28;20391;-73
2023/10/29 08:50:36;;;;;;;5.72;1.63;;;;;;;;;;5092513;28;20059;-72
2023/10/29 08:53:02;;;;;;;2.28;1.40;;;;;;;;;;5092082;28;20051;-72
2023/10/29 08:55:28;;;;;;;3.05;1.38;;;;;;;;;;5091700;28;20404;-74
2023/10/29 08:57:54;;;;;;;4.70;1.20;;;;;;;;;;5092932;28;20024;-75
2023/10/29 09:00:20;;;;;;;4.07;1.45;;;;;;;;;;5091878;28;20437;-75
2023/10/29 09:02:47;;;;;;;7.05;1.40;;;;;;;;;;5091545;28;20471;-73
2023/10/29 09:05:13;;;;;;;4.75;1.48;;;;;;;;;;5091622;28;20041;-73
2023/10/29 09:07:39;;;;;;;6.45;1.42;;;;;;;;;;5091592;28;20012;-73
2023/10/29 09:10:05;;;;;;;3.20;1.33;;;;;;;;;;5092529;28;20016;-74
2023/10/29 09:12:31;;;;;;;72.30;30.33;;;;;;;;;;5092572;28;20028;-74
2023/10/29 09:14:57;;;;;;;13.75;4.43;;;;;;;;;;5092283;28;20105;-77
2023/10/29 09:17:23;;;;;;;6.60;1.08;;;;;;;;;;5091697;28;20024;-74
2023/10/29 09:19:49;;;;;;;3.20;1.10;;;;;;;;;;5091611;28;20024;-73
2023/10/29 09:22:15;;;;;;;10.63;1.85;;;;;;;;;;5091417;28;20458;-72
2023/10/29 09:24:41;;;;;;;3.63;1.58;;;;;;;;;;5091745;28;20052;-73
2023/10/29 09:27:07;;;;;;;5.78;1.90;;;;;;;;;;5096767;28;20459;-72
2023/10/29 09:29:36;;;;;;;5.63;1.30;;;;;;;;;;5091374;28;20020;-73
2023/10/29 09:32:04;;;;;;;8.98;1.30;;;;;;;;;;5091223;28;20388;-72
2023/10/29 09:34:32;;;;;;;6.78;0.90;;;;;;;;;;5091691;28;20432;-73
2023/10/29 09:36:58;;;;;;;3.45;1.10;;;;;;;;;;5091742;28;20104;-73
2023/10/29 09:39:24;;;;;;;6.18;1.20;;;;;;;;;;5091706;28;20118;-74
2023/10/29 09:41:53;;;;;;;5.05;1.10;;;;;;;;;;5095167;28;20032;-72
2023/10/29 09:44:21;;;;;;;5.05;1.10;;;;;;;;;;5091126;28;20395;-73
2023/10/29 09:46:47;;;;;;;6.43;1.35;;;;;;;;;;5091282;28;20020;-74
2023/10/29 09:49:13;;;;;;;6.57;1.10;;;;;;;;;;5092644;28;20040;-74
2023/10/29 09:51:41;;;;;;;6.45;1.40;;;;;;;;;;5094529;28;20032;-72
2023/10/29 09:54:08;;;;;;;9.95;1.77;;;;;;;;;;5091035;28;20494;-73
2023/10/29 09:56:36;;;;;;;5.20;1.17;;;;;;;;;;5091270;28;20047;-72
2023/10/29 09:59:05;;;;;;;7.28;1.50;;;;;;;;;;5091269;28;20054;-73
2023/10/29 10:01:30;;;;;;;14.15;2.92;;;;;;;;;;5090737;28;20046;-74
2023/10/29 10:03:56;;;;;;;7.53;1.10;;;;;;;;;;5091483;28;20028;-73
2023/10/29 10:06:23;;;;;;;4.22;1.45;;;;;;;;;;5091225;28;20163;-74
2023/10/29 10:08:56;;;;;;;8.38;1.40;;;;;;;;;;5091328;28;20028;-73
2023/10/29 10:11:23;;;;;;;5.50;1.10;;;;;;;;;;5091979;28;20051;-73
2023/10/29 10:13:49;;;;;;;6.60;1.67;;;;;;;;;;5094979;28;20020;-72
2023/10/29 10:16:16;;;;;;;4.80;1.35;;;;;;;;;;5095022;28;20032;-73
2023/10/29 10:18:52;;;;;;;7.80;1.42;;;;;;;;;;5095638;28;20099;-73
2023/10/29 10:21:20;;;;;;;8.55;1.40;;;;;;;;;;5095154;28;20070;-74
2023/10/29 10:23:55;;;;;;;8.13;1.30;;;;;;;;;;5094741;28;20024;-71
2023/10/29 10:26:33;;;;;;;8.52;2.35;;;;;;;;;;5094804;28;20047;-73
2023/10/29 10:29:00;;;;;;;4.20;1.30;;;;;;;;;;5094331;28;20032;-73
2023/10/29 10:31:27;;;;;;;4.72;1.10;;;;;;;;;;5094373;28;20040;-74
2023/10/29 10:34:09;;;;;;;4.32;1.40;;;;;;;;;;5094381;28;20047;-75
2023/10/29 10:36:35;;;;;;;4.78;1.23;;;;;;;;;;5094729;28;20055;-75
2023/10/29 10:39:01;;;;;;;5.57;1.10;;;;;;;;;;5095620;28;20035;-74
2023/10/29 10:41:43;;;;;;;6.03;1.10;;;;;;;;;;5095188;28;20400;-73
2023/10/29 10:44:10;;;;;;;3.03;0.82;;;;;;;;;;5095284;28;20551;-74
2023/10/29 10:46:37;;;;;;;3.35;1.23;;;;;;;;;;5094348;28;20028;-73
2023/10/29 10:49:08;;;;;;;6.88;1.10;;;;;;;;;;5094153;28;20483;-72
2023/10/29 10:51:38;;;;;;;4.95;1.00;;;;;;;;;;5093929;28;20503;-73
2023/10/29 10:54:05;;;;;;;9.95;1.13;;;;;;;;;;5093993;28;20028;-73
2023/10/29 10:56:38;;;;;;;3.40;0.95;;;;;;;;;;5092816;28;20110;-72
2023/10/29 10:59:09;;;;;;;5.05;1.30;;;;;;;;;;5093848;28;20028;-74
2023/10/29 11:01:36;;;;;;;5.30;1.42;;;;;;;;;;5093419;28;20028;-74
2023/10/29 11:04:03;;;;;;;5.60;1.30;;;;;;;;;;5093698;28;20487;-74
2023/10/29 11:06:30;;;;;;;4.05;1.50;;;;;;;;;;5096257;28;20021;-74
2023/10/29 11:08:56;;;;;;;10.18;1.08;;;;;;;;;;5094847;28;20025;-72
2023/10/29 11:11:24;;;;;;;4.95;1.38;;;;;;;;;;5093508;28;20479;-74
2023/10/29 11:13:50;;;;;;;4.05;1.17;;;;;;;;;;5094355;28;20073;-72
2023/10/29 11:16:24;;;;;;;4.30;1.30;;;;;;;;;;5093494;28;20028;-74
2023/10/29 11:18:50;;;;;;;5.68;0.90;;;;;;;;;;5093790;28;20545;-74
2023/10/29 11:21:34;;;;;;;1.92;0.70;;;;;;;;;;5092932;28;20053;-73
2023/10/29 11:24:17;;;;;;;7.53;1.33;;;;;;;;;;5092758;28;20479;-74
2023/10/29 11:26:43;;;;;;;7.88;1.13;;;;;;;;;;5093402;28;20012;-74
2023/10/29 11:29:09;;;;;;;5.72;1.23;;;;;;;;;;5093220;28;20063;-74
2023/10/29 11:31:35;;;;;;;5.10;1.13;;;;;;;;;;5092623;28;20043;-73
2023/10/29 11:34:01;;;;;;;7.30;1.75;;;;;;;;;;5093728;28;20479;-73
2023/10/29 11:36:41;;;;;;;10.05;1.40;;;;;;;;;;5093294;28;20020;-73
2023/10/29 11:39:16;;;;;;;6.80;1.27;;;;;;;;;;5093692;28;20020;-73
2023/10/29 11:41:43;;;;;;;12.50;1.73;;;;;;;;;;5092547;28;20127;-73
2023/10/29 11:44:19;;;;;;;4.82;1.23;;;;;;;;;;5093274;28;20028;-73
2023/10/29 11:47:05;;;;;;;4.13;1.17;;;;;;;;;;5093204;28;20503;-73
2023/10/29 11:49:51;;;;;;;8.15;1.13;;;;;;;;;;5092765;28;20491;-73
2023/10/29 11:52:17;;;;;;;6.55;1.33;;;;;;;;;;5092535;28;20028;-73
2023/10/29 11:54:43;;;;;;;9.02;1.35;;;;;;;;;;5092808;28;20099;-74
2023/10/29 11:57:09;;;;;;;5.40;1.20;;;;;;;;;;5091487;28;20020;-74
2023/10/29 11:59:53;;;;;;;6.05;1.30;;;;;;;;;;5092907;28;20617;-73
2023/10/29 12:02:19;;;;;;;5.45;1.30;;;;;;;;;;5092612;28;20032;-72
2023/10/29 12:04:45;;;;;;;7.22;1.23;;;;;;;;;;5094981;28;20024;-74
2023/10/29 12:07:23;;;;;;;7.40;1.33;;;;;;;;;;5093114;28;20024;-72
2023/10/29 12:09:59;;;;;;;7.07;1.45;;;;;;;;;;5095599;28;20103;-73
2023/10/29 12:12:25;;;;;;;6.32;1.35;;;;;;;;;;5094988;28;20365;-73
2023/10/29 12:14:51;;;;;;;7.57;1.85;;;;;;;;;;5098687;28;20034;-74
2023/10/29 12:17:17;;;;;;;15.45;1.65;;;;;;;;;;5102071;28;20050;-73
2023/10/29 12:19:47;;;;;;;7.97;1.52;;;;;;;;;;5097829;28;20027;-72
2023/10/29 12:22:17;;;;;;;6.88;1.48;;;;;;;;;;5096494;28;20032;-73
2023/10/29 12:24:43;;;;;;;7.70;1.20;;;;;;;;;;5094952;28;20368;-74
2023/10/29 12:27:10;;;;;;;7.80;1.27;;;;;;;;;;5103612;28;20161;-74
2023/10/29 12:29:36;;;;;;;7.78;1.50;;;;;;;;;;5105351;28;20115;-74
2023/10/29 12:32:02;;;;;;;6.20;1.35;;;;;;;;;;5094506;28;20070;-73
2023/10/29 12:34:28;;;;;;;3.88;1.40;;;;;;;;;;5095090;28;20478;-73
2023/10/29 12:36:54;;;;;;;7.22;1.40;;;;;;;;;;5102411;28;20077;-74
2023/10/29 12:39:20;;;;;;;6.88;1.65;;;;;;;;;;5103235;28;20463;-73
2023/10/29 12:41:55;;;;;;;7.55;1.55;;;;;;;;;;5095564;28;20065;-73
2023/10/29 12:44:21;;;;;;;9.48;2.08;;;;;;;;;;5096227;28;20031;-74
2023/10/29 12:46:50;;;;;;;9.55;1.70;;;;;;;;;;5094177;28;20094;-73
2023/10/29 12:49:25;;;;;;;11.48;1.85;;;;;;;;;;5092332;28;20032;-73
2023/10/29 12:51:54;;;;;;;9.38;1.67;;;;;;;;;;5091628;28;20152;-74
2023/10/29 12:54:23;;;;;;;9.45;1.70;;;;;;;;;;5091858;28;20028;-74
2023/10/29 12:56:56;;;;;;;7.50;1.73;;;;;;;;;;5092053;28;20022;-74
2023/10/29 12:59:22;;;;;;;7.63;1.40;;;;;;;;;;5091828;28;20102;-73
2023/10/29 13:01:50;;;;;;;8.88;2.00;;;;;;;;;;5093938;28;20028;-74
2023/10/29 13:04:16;;;;;;;6.93;1.83;;;;;;;;;;5094411;28;20058;-72
2023/10/29 13:06:42;;;;;;;7.95;1.75;;;;;;;;;;5091978;28;20020;-72
2023/10/29 13:09:09;;;;;;;21.98;1.90;;;;;;;;;;5093271;28;20047;-74
2023/10/29 13:11:36;;;;;;;7.88;1.80;;;;;;;;;;5091316;28;20028;-73
2023/10/29 13:14:02;;;;;;;13.40;1.63;;;;;;;;;;5092063;28;20441;-75
2023/10/29 13:16:28;;;;;;;8.45;1.40;;;;;;;;;;5092326;28;20111;-74
2023/10/29 13:18:54;;;;;;;9.38;1.90;;;;;;;;;;5091564;28;20261;-74
2023/10/29 13:21:20;;;;;;;6.22;1.52;;;;;;;;;;5091038;28;20024;-74
2023/10/29 13:23:47;;;;;;;6.53;1.67;;;;;;;;;;5091516;28;20039;-73
2023/10/29 13:26:13;;;;;;;12.80;1.73;;;;;;;;;;5091314;28;20466;-74
2023/10/29 13:28:38;;;;;;;11.80;1.60;;;;;;;;;;5091912;28;20104;-73
2023/10/29 13:31:04;;;;;;;8.48;1.70;;;;;;;;;;5091578;28;20046;-78
2023/10/29 13:33:31;;;;;;;7.40;2.05;;;;;;;;;;5094216;28;20040;-73
2023/10/29 13:35:57;;;;;;;10.60;2.10;;;;;;;;;;5093797;28;20024;-74
2023/10/29 13:38:24;;;;;;;8.90;1.80;;;;;;;;;;5091664;28;20035;-73
2023/10/29 13:40:50;;;;;;;8.60;2.70;;;;;;;;;;5091409;28;20455;-72
2023/10/29 13:43:16;;;;;;;14.25;2.53;;;;;;;;;;5091360;28;20059;-74
2023/10/29 13:45:42;;;;;;;7.45;1.58;;;;;;;;;;5090451;28;20115;-73
2023/10/29 13:48:08;;;;;;;8.98;1.80;;;;;;;;;;5095477;28;20021;-73
2023/10/29 13:50:38;;;;;;;9.13;1.63;;;;;;;;;;5095368;28;20428;-72
2023/10/29 13:53:04;;;;;;;5.97;1.60;;;;;;;;;;5095328;28;20531;-73
2023/10/29 13:55:30;;;;;;;10.30;1.60;;;;;;;;;;5096952;28;20036;-73
2023/10/29 13:57:58;;;;;;;8.60;2.42;;;;;;;;;;5095424;28;20024;-74
2023/10/29 14:00:26;;;;;;;12.35;2.65;;;;;;;;;;5095622;28;20024;-74
2023/10/29 14:02:52;;;;;;;6.93;1.70;;;;;;;;;;5094022;28;20035;-73
2023/10/29 14:05:18;;;;;;;9.88;1.80;;;;;;;;;;5095139;28;20025;-73
2023/10/29 14:07:44;;;;;;;5.47;1.40;;;;;;;;;;5095202;28;20027;-72
2023/10/29 14:10:11;;;;;;;10.80;2.05;;;;;;;;;;5095238;28;20103;-74
2023/10/29 14:12:40;;;;;;;9.88;2.08;;;;;;;;;;5094963;28;20079;-73
2023/10/29 14:15:07;;;;;;;8.13;1.70;;;;;;;;;;5095549;28;20560;-73
2023/10/29 14:17:32;;;;;;;13.48;1.95;;;;;;;;;;5096261;28;20517;-73
2023/10/29 14:19:59;;;;;;;7.22;1.65;;;;;;;;;;5095277;28;20028;-73
2023/10/29 14:22:25;;;;;;;10.18;1.60;;;;;;;;;;5094426;28;20475;-73
2023/10/29 14:24:52;;;;;;;14.15;1.65;;;;;;;;;;5093471;28;20026;-74
2023/10/29 14:27:18;;;;;;;5.85;1.60;;;;;;;;;;5094789;28;20020;-72
2023/10/29 14:29:44;;;;;;;10.30;1.65;;;;;;;;;;5094471;28;20024;-73
2023/10/29 14:32:10;;;;;;;8.73;1.80;;;;;;;;;;5093966;28;20111;-76
2023/10/29 14:34:36;;;;;;;10.93;1.70;;;;;;;;;;5094580;28;20063;-72